Time;durP1;ratioP1;P1;durP2;ratioP2;P2;SDS_P1;SDS_P2;PMS_P1;PMS_P2;Temp;Humidity;BMP_temperature;BMP_pressure;BME280_temperature;BME280_humidity;BME280_pressure;Samples;Min_cycle;Max_cycle;Signal;HPM_P1;HPM_P2
2023/11/18 00:04:34;;;;;;;19.45;9.02;;;;;;;4.99;76.21;101286.16;10299392;28;20112;-62
2023/11/18 00:09:36;;;;;;;24.42;9.45;;;;;;;4.99;76.38;101294.97;10305895;28;20062;-62
2023/11/18 00:14:38;;;;;;;28.10;12.07;;;;;;;4.94;76.04;101289.16;10299110;28;20575;-63
2023/11/18 00:19:39;;;;;;;24.05;9.05;;;;;;;4.89;76.03;101292.16;10288682;28;20042;-63
2023/11/18 00:24:41;;;;;;;22.27;9.05;;;;;;;4.74;76.51;101290.66;10300733;28;20050;-62
2023/11/18 00:29:43;;;;;;;27.38;11.43;;;;;;;4.60;76.59;101293.50;10302541;28;20141;-64
2023/11/18 00:34:45;;;;;;;22.98;12.20;;;;;;;4.49;76.97;101303.13;10304220;28;20054;-63
2023/11/18 00:39:46;;;;;;;27.52;11.32;;;;;;;4.53;76.36;101296.63;10302606;28;20057;-63
2023/11/18 00:44:47;;;;;;;16.95;7.85;;;;;;;4.61;76.21;101298.72;10304142;28;20054;-64
2023/11/18 00:49:50;;;;;;;20.98;9.55;;;;;;;4.54;76.41;101293.00;10304936;28;20050;-63
2023/11/18 00:54:51;;;;;;;25.02;9.15;;;;;;;4.55;76.35;101291.19;10298639;28;20513;-63
2023/11/18 00:59:53;;;;;;;24.73;8.98;;;;;;;4.42;76.06;101301.88;10297961;28;20052;-62
2023/11/18 01:04:55;;;;;;;19.67;8.23;;;;;;;4.31;76.58;101301.81;10302819;28;20581;-64
2023/11/18 01:09:56;;;;;;;23.00;8.88;;;;;;;4.35;76.47;101309.47;10302180;28;20050;-63
2023/11/18 01:14:58;;;;;;;24.05;9.13;;;;;;;4.35;76.20;101316.59;10302575;28;20054;-63
2023/11/18 01:20:02;;;;;;;20.80;7.35;;;;;;;4.34;76.22;101317.56;10301672;28;20046;-61
2023/11/18 01:25:05;;;;;;;19.65;7.07;;;;;;;4.37;76.21;101320.00;10303596;28;20055;-59
2023/11/18 01:30:07;;;;;;;16.40;8.05;;;;;;;4.35;76.35;101319.28;10292755;28;20042;-59
2023/11/18 01:35:10;;;;;;;21.80;8.20;;;;;;;4.30;76.21;101316.06;10300517;28;20047;-59
2023/11/18 01:40:13;;;;;;;27.30;8.95;;;;;;;4.12;76.45;101318.25;10298368;28;20134;-59
2023/11/18 01:45:16;;;;;;;91.95;10.75;;;;;;;4.16;76.36;101317.06;10298155;28;20054;-60
2023/11/18 01:50:17;;;;;;;21.38;7.70;;;;;;;4.09;76.39;101316.69;10299175;28;20043;-59
2023/11/18 01:55:19;;;;;;;22.85;8.23;;;;;;;4.04;76.53;101318.81;10282030;28;20077;-60
2023/11/18 02:00:21;;;;;;;12.27;6.72;;;;;;;4.10;76.14;101323.69;10299957;28;20058;-61
2023/11/18 02:05:23;;;;;;;24.42;7.78;;;;;;;4.18;76.00;101321.31;10306023;28;20059;-60
2023/11/18 02:10:25;;;;;;;13.65;6.00;;;;;;;4.16;76.33;101323.25;10297507;28;20979;-59
2023/11/18 02:15:29;;;;;;;15.88;6.28;;;;;;;4.24;76.45;101321.84;10299277;28;20050;-59
2023/11/18 02:20:32;;;;;;;12.13;6.90;;;;;;;4.29;76.45;101325.03;10304995;28;20066;-59
2023/11/18 02:25:39;;;;;;;10.73;5.75;;;;;;;4.30;76.34;101332.03;10295024;28;20066;-60
2023/11/18 02:30:42;;;;;;;32.30;7.57;;;;;;;4.24;76.20;101332.50;10279092;28;20058;-62
2023/11/18 02:35:52;;;;;;;25.40;7.65;;;;;;;4.29;76.36;101333.88;10303014;28;20066;-63
2023/11/18 02:40:58;;;;;;;15.77;6.80;;;;;;;4.31;76.01;101333.75;10298161;28;20054;-62
2023/11/18 02:46:00;;;;;;;33.78;7.53;;;;;;;4.35;75.99;101332.56;10297174;28;20046;-63
2023/11/18 02:51:02;;;;;;;110.53;11.70;;;;;;;4.39;76.49;101334.06;10300227;28;20098;-63
2023/11/18 02:56:04;;;;;;;68.32;10.35;;;;;;;4.42;76.09;101323.16;10300782;28;20047;-62
2023/11/18 03:01:06;;;;;;;33.15;7.10;;;;;;;4.49;76.37;101320.91;10278051;28;20050;-63
2023/11/18 03:06:08;;;;;;;30.95;7.88;;;;;;;4.57;76.80;101314.06;10297385;28;20058;-63
2023/11/18 03:11:09;;;;;;;28.40;7.50;;;;;;;4.66;76.42;101314.34;10294045;28;20079;-63
2023/11/18 03:16:12;;;;;;;22.98;7.80;;;;;;;4.71;76.15;101312.19;10295447;28;20065;-63
2023/11/18 03:21:14;;;;;;;14.82;6.88;;;;;;;4.83;75.78;101295.28;10279993;28;20053;-63
2023/11/18 03:26:16;;;;;;;60.90;9.40;;;;;;;4.85;76.42;101311.16;10298974;28;20051;-63
2023/11/18 03:31:17;;;;;;;31.08;7.47;;;;;;;4.83;76.14;101302.44;10299224;28;20051;-62
2023/11/18 03:36:19;;;;;;;22.88;8.20;;;;;;;4.83;76.83;101297.94;10294732;28;20046;-63
2023/11/18 03:41:23;;;;;;;49.22;8.60;;;;;;;4.90;76.20;101303.69;10294507;28;20052;-62
2023/11/18 03:46:25;;;;;;;58.83;8.60;;;;;;;4.86;76.45;101313.72;10302972;28;20694;-63
2023/11/18 03:51:28;;;;;;;34.35;7.97;;;;;;;4.79;76.69;101322.28;10305105;28;20057;-62
2023/11/18 03:56:29;;;;;;;38.38;9.23;;;;;;;4.81;77.05;101320.34;10303060;28;20061;-63
2023/11/18 04:01:32;;;;;;;57.55;8.20;;;;;;;4.80;76.21;101313.31;10296765;28;20054;-62
2023/11/18 04:06:34;;;;;;;63.75;11.73;;;;;;;4.86;76.89;101313.72;10308369;28;20113;-63
2023/11/18 04:11:36;;;;;;;20.73;8.35;;;;;;;4.92;76.29;101315.06;10306411;28;20046;-63
2023/11/18 04:16:40;;;;;;;24.42;7.50;;;;;;;5.08;75.89;101310.28;10307110;28;20062;-63
2023/11/18 04:21:43;;;;;;;22.40;7.95;;;;;;;5.20;76.30;101297.00;10304379;28;20063;-64
2023/11/18 04:26:45;;;;;;;29.10;7.05;;;;;;;5.22;75.54;101282.56;10307298;28;20054;-63
2023/11/18 04:31:46;;;;;;;23.77;8.88;;;;;;;5.21;75.68;101286.19;10303501;28;20050;-63
2023/11/18 04:36:47;;;;;;;30.55;8.75;;;;;;;5.31;75.63;101304.97;10307800;28;20052;-64
2023/11/18 04:41:49;;;;;;;34.35;7.20;;;;;;;5.25;75.68;101321.44;10306969;28;20545;-63
2023/11/18 04:46:50;;;;;;;38.85;8.38;;;;;;;5.20;75.91;101313.81;10305822;28;20058;-64
2023/11/18 04:51:52;;;;;;;65.78;9.88;;;;;;;5.20;75.61;101323.63;10304296;28;20078;-60
2023/11/18 04:56:53;;;;;;;35.35;8.73;;;;;;;5.28;75.57;101322.06;10303440;28;20063;-60
2023/11/18 05:01:55;;;;;;;22.50;8.38;;;;;;;5.38;75.64;101324.03;10300895;28;20073;-60
2023/11/18 05:06:57;;;;;;;19.02;8.23;;;;;;;5.38;75.36;101308.06;10299522;28;20057;-60
2023/11/18 05:11:59;;;;;;;21.08;8.23;;;;;;;5.42;76.24;101297.00;10298396;28;20051;-60
2023/11/18 05:17:02;;;;;;;22.27;6.72;;;;;;;5.44;76.42;101287.06;10301742;28;20320;-60
2023/11/18 05:22:06;;;;;;;19.20;6.60;;;;;;;5.40;76.33;101292.78;10305346;28;20131;-60
2023/11/18 05:27:07;;;;;;;15.15;6.70;;;;;;;5.45;75.95;101287.91;10288956;28;20062;-59
2023/11/18 05:32:09;;;;;;;18.17;8.80;;;;;;;5.44;75.83;101280.91;10304837;28;20058;-60
2023/11/18 05:37:11;;;;;;;11.95;6.47;;;;;;;5.34;75.62;101284.28;10300455;28;20113;-60
2023/11/18 05:42:12;;;;;;;16.15;6.43;;;;;;;5.43;75.33;101265.84;10301257;28;20074;-60
2023/11/18 05:47:13;;;;;;;15.18;6.40;;;;;;;5.48;75.07;101264.53;10300752;28;20051;-62
2023/11/18 05:52:15;;;;;;;17.90;7.80;;;;;;;5.49;75.13;101260.03;10300809;28;20046;-61
2023/11/18 05:57:17;;;;;;;15.38;6.40;;;;;;;5.51;75.65;101248.31;10302966;28;20039;-60
2023/11/18 06:02:19;;;;;;;13.32;6.53;;;;;;;5.55;75.41;101243.59;10303938;28;20054;-61
2023/11/18 06:07:20;;;;;;;13.35;6.50;;;;;;;5.52;75.42;101260.66;10305511;28;20053;-61
2023/11/18 06:12:22;;;;;;;21.80;7.20;;;;;;;5.36;76.08;101261.00;10299146;28;20046;-61
2023/11/18 06:17:23;;;;;;;19.48;6.35;;;;;;;5.18;75.62;101267.78;10306208;28;20524;-61
2023/11/18 06:22:25;;;;;;;68.05;9.25;;;;;;;5.16;76.14;101264.38;10298431;28;20581;-61
2023/11/18 06:27:27;;;;;;;53.95;8.70;;;;;;;5.22;75.49;101269.25;10299459;28;20047;-61
2023/11/18 06:32:28;;;;;;;21.40;7.75;;;;;;;5.24;75.87;101269.97;10291013;28;20050;-61
2023/11/18 06:37:33;;;;;;;20.98;8.07;;;;;;;5.37;75.40;101280.50;10283830;28;20093;-62
2023/11/18 06:42:36;;;;;;;26.02;8.00;;;;;;;5.55;75.59;101271.09;10300114;28;20058;-72
2023/11/18 06:47:38;;;;;;;27.00;8.43;;;;;;;5.66;74.75;101264.91;10287177;28;20046;-72
2023/11/18 06:52:44;;;;;;;26.55;8.68;;;;;;;5.73;75.15;101276.78;10284337;28;20062;-72
2023/11/18 06:57:48;;;;;;;33.65;9.27;;;;;;;5.90;75.05;101271.94;10303319;28;20061;-72
2023/11/18 07:02:50;;;;;;;28.35;9.13;;;;;;;5.97;74.89;101273.16;10299434;28;20038;-73
2023/11/18 07:07:51;;;;;;;54.85;9.98;;;;;;;6.04;75.46;101268.19;10305107;28;20404;-72
2023/11/18 07:12:53;;;;;;;27.52;9.27;;;;;;;6.11;75.45;101270.22;10287883;28;20695;-65
2023/11/18 07:17:56;;;;;;;29.02;8.38;;;;;;;6.17;74.40;101268.88;10306815;28;20046;-66
2023/11/18 07:22:57;;;;;;;27.05;9.10;;;;;;;6.22;74.30;101266.72;10305087;28;20057;-65
2023/11/18 07:27:59;;;;;;;26.80;9.13;;;;;;;6.24;75.38;101258.53;10308336;28;20050;-66
2023/11/18 07:33:01;;;;;;;44.17;9.35;;;;;;;6.24;75.44;101256.75;10291353;28;20343;-66
2023/11/18 07:38:03;;;;;;;24.10;8.77;;;;;;;6.30;74.86;101269.59;10302161;28;20054;-66
2023/11/18 07:43:07;;;;;;;29.17;9.10;;;;;;;6.42;74.48;101285.56;10303634;28;20073;-67
2023/11/18 07:48:11;;;;;;;27.80;9.20;;;;;;;6.50;74.69;101286.66;10305324;28;20043;-66
2023/11/18 07:53:13;;;;;;;27.83;10.38;;;;;;;6.58;75.28;101288.69;10304703;28;20963;-66
2023/11/18 07:58:18;;;;;;;35.70;9.85;;;;;;;6.65;74.82;101297.03;10301909;28;20669;-66
2023/11/18 08:03:20;;;;;;;34.88;10.38;;;;;;;6.68;74.97;101302.13;10307803;28;20047;-65
2023/11/18 08:08:22;;;;;;;37.75;11.07;;;;;;;6.72;74.61;101295.56;10304050;28;20065;-65
2023/11/18 08:13:23;;;;;;;33.97;11.25;;;;;;;6.78;74.35;101294.22;10317677;28;20054;-66
2023/11/18 08:18:27;;;;;;;25.83;9.13;;;;;;;6.75;74.30;101292.63;10316620;28;20145;-66
2023/11/18 08:23:29;;;;;;;27.90;8.35;;;;;;;6.72;74.75;101315.09;10307234;28;20056;-68
2023/11/18 08:28:31;;;;;;;31.90;10.52;;;;;;;6.66;75.33;101285.38;10290864;28;20047;-69
2023/11/18 08:33:33;;;;;;;38.95;11.45;;;;;;;6.71;74.46;101286.69;10311879;28;20063;-68
2023/11/18 08:38:35;;;;;;;41.30;8.65;;;;;;;6.74;74.44;101275.75;10291299;28;20456;-68
2023/11/18 08:43:36;;;;;;;73.07;12.60;;;;;;;6.64;74.79;101273.97;10304559;28;20061;-71
2023/11/18 08:48:38;;;;;;;62.55;9.65;;;;;;;6.59;75.12;101273.50;10301656;28;20053;-69
2023/11/18 08:53:42;;;;;;;55.38;10.98;;;;;;;6.72;75.18;101272.34;10309015;28;20038;-68
2023/11/18 08:58:44;;;;;;;44.13;12.07;;;;;;;6.91;74.58;101246.75;10301612;28;20081;-68
2023/11/18 09:03:51;;;;;;;43.40;10.40;;;;;;;7.12;74.48;101246.75;10306807;28;20074;-69
2023/11/18 09:08:54;;;;;;;38.95;10.60;;;;;;;7.17;74.93;101254.38;10300840;28;20070;-69
2023/11/18 09:13:59;;;;;;;70.20;10.43;;;;;;;7.16;74.52;101245.50;10284890;28;20428;-69
2023/11/18 09:19:02;;;;;;;87.90;16.10;;;;;;;7.05;75.09;101259.81;10298508;28;20498;-70
2023/11/18 09:24:07;;;;;;;67.18;11.85;;;;;;;6.95;75.47;101267.75;10316521;28;20072;-68
2023/11/18 09:29:09;;;;;;;84.63;13.50;;;;;;;7.11;75.06;101261.94;10304113;28;20061;-69
2023/11/18 09:34:15;;;;;;;45.13;12.48;;;;;;;7.23;75.11;101243.19;10310072;28;20050;-65
2023/11/18 09:39:29;;;;;;;51.42;10.80;;;;;;;7.34;74.58;101272.50;10308797;28;20131;-65
2023/11/18 09:44:32;;;;;;;47.47;10.75;;;;;;;7.46;74.55;101267.91;10305783;28;20580;-64
2023/11/18 09:49:44;;;;;;;52.20;13.25;;;;;;;7.60;74.77;101256.84;10306924;28;20061;-65
2023/11/18 09:54:56;;;;;;;53.55;12.25;;;;;;;7.69;74.70;101257.88;10307189;28;20054;-65
2023/11/18 10:00:19;;;;;;;39.03;11.68;;;;;;;7.83;75.23;101254.84;10309502;28;20062;-65
2023/11/18 10:05:22;;;;;;;48.90;13.50;;;;;;;8.03;74.42;101245.03;10306967;28;20046;-65
2023/11/18 10:10:26;;;;;;;47.33;12.27;;;;;;;8.04;75.17;101240.53;10307908;28;20051;-64
2023/11/18 10:15:31;;;;;;;40.20;12.00;;;;;;;8.05;75.02;101234.19;10316886;28;20050;-65
2023/11/18 10:20:38;;;;;;;41.33;11.77;;;;;;;8.08;74.88;101241.94;10318191;28;20047;-66
2023/11/18 10:25:49;;;;;;;;;;;;;;;8.02;75.13;101243.34;10308814;28;20056;-65
2023/11/18 10:30:50;;;;;;;40.45;12.43;;;;;;;7.97;75.25;101242.06;10312076;28;19926;-66
2023/11/18 10:35:55;;;;;;;36.88;11.68;;;;;;;8.01;74.99;101238.13;10319845;28;20047;-65
2023/11/18 10:41:00;;;;;;;44.97;13.27;;;;;;;8.02;75.02;101219.25;10316748;28;20067;-65
2023/11/18 10:46:16;;;;;;;39.53;13.07;;;;;;;8.05;75.20;101224.31;10312398;28;20113;-65
2023/11/18 10:51:26;;;;;;;40.80;11.65;;;;;;;8.00;75.64;101207.84;10293179;28;20142;-66
2023/11/18 10:56:28;;;;;;;45.17;12.93;;;;;;;7.98;75.44;101190.19;10292939;28;20069;-65
2023/11/18 11:01:31;;;;;;;47.30;13.52;;;;;;;8.10;75.12;101183.75;10309758;28;20050;-65
2023/11/18 11:06:34;;;;;;;41.33;12.23;;;;;;;8.04;75.43;101185.16;10305153;28;20759;-65
2023/11/18 11:11:40;;;;;;;59.15;16.02;;;;;;;8.04;75.65;101182.47;10300357;28;20049;-65
2023/11/18 11:16:43;;;;;;;50.55;15.45;;;;;;;8.06;75.75;101177.81;10307153;28;20057;-65
2023/11/18 11:21:53;;;;;;;60.33;14.68;;;;;;;8.18;75.71;101158.94;10307969;28;20057;-66
2023/11/18 11:27:23;;;;;;;57.25;16.08;;;;;;;8.32;75.53;101143.28;10309328;28;20053;-66
2023/11/18 11:32:38;;;;;;;50.28;15.35;;;;;;;8.40;75.32;101136.38;10288484;28;20580;-66
2023/11/18 11:37:42;;;;;;;58.78;17.13;;;;;;;8.51;75.17;101121.03;10292290;28;20636;-65
2023/11/18 11:42:44;;;;;;;58.45;16.33;;;;;;;8.59;75.03;101100.69;10309953;28;20058;-66
2023/11/18 11:47:50;;;;;;;62.28;15.55;;;;;;;8.72;75.00;101094.03;10310557;28;20052;-66
2023/11/18 11:52:59;;;;;;;55.90;15.85;;;;;;;8.70;75.29;101098.69;10305791;28;20134;-71
2023/11/18 11:58:01;;;;;;;51.83;15.93;;;;;;;8.68;75.32;101084.59;10297148;28;20077;-70
2023/11/18 12:03:04;;;;;;;50.08;15.52;;;;;;;8.89;74.93;101070.16;10303688;28;20154;-71
2023/11/18 12:08:12;;;;;;;52.92;15.77;;;;;;;9.03;74.99;101064.28;10292553;28;20593;-69
2023/11/18 12:13:19;;;;;;;42.50;14.57;;;;;;;9.25;74.87;101046.13;10295990;28;20050;-68
2023/11/18 12:18:21;;;;;;;46.63;15.75;;;;;;;9.25;75.02;101038.91;10308026;28;20528;-70
2023/11/18 12:23:24;;;;;;;46.92;15.00;;;;;;;9.27;75.01;101036.91;10308360;28;20046;-70
2023/11/18 12:28:30;;;;;;;42.40;16.38;;;;;;;9.27;74.97;101030.72;10289501;28;20054;-66
2023/11/18 12:33:50;;;;;;;34.97;12.52;;;;;;;9.35;75.08;101030.78;10278360;28;20741;-71
2023/11/18 12:39:21;;;;;;;33.47;12.73;;;;;;;9.27;75.34;101031.53;10310022;28;20117;-70
2023/11/18 12:44:39;;;;;;;33.63;13.05;;;;;;;9.27;75.32;101028.03;10303558;28;20463;-70
2023/11/18 12:49:41;;;;;;;38.28;13.25;;;;;;;9.36;75.10;101019.09;10312735;28;20166;-70
2023/11/18 12:54:43;;;;;;;39.70;14.60;;;;;;;9.42;75.01;101009.56;10277257;28;20128;-70
2023/11/18 12:59:46;;;;;;;38.85;14.48;;;;;;;9.43;74.78;101012.09;10308442;28;20081;-70
2023/11/18 13:04:49;;;;;;;41.03;14.77;;;;;;;9.39;75.06;100978.50;10291575;28;20528;-68
2023/11/18 13:09:50;;;;;;;40.15;14.48;;;;;;;9.31;75.18;100984.63;10309687;28;20185;-68
2023/11/18 13:14:52;;;;;;;46.15;15.02;;;;;;;9.11;75.87;100978.56;10299594;28;20371;-70
2023/11/18 13:19:54;;;;;;;49.40;15.88;;;;;;;9.11;75.97;100959.78;10303607;28;20050;-69
2023/11/18 13:24:57;;;;;;;36.05;14.82;;;;;;;9.20;75.86;100935.72;10306308;28;20070;-70
2023/11/18 13:29:59;;;;;;;43.92;16.45;;;;;;;9.15;76.28;100948.78;10304181;28;20059;-69
2023/11/18 13:35:02;;;;;;;41.17;13.90;;;;;;;9.29;76.00;100941.03;10305853;28;20065;-70
2023/11/18 13:40:05;;;;;;;36.85;16.10;;;;;;;9.34;76.10;100929.84;10301245;28;20122;-70
2023/11/18 13:45:15;;;;;;;37.67;14.15;;;;;;;9.36;76.23;100918.94;10302472;28;20100;-71
2023/11/18 13:50:37;;;;;;;39.95;14.52;;;;;;;9.42;76.30;100916.50;10309872;28;20121;-70
2023/11/18 13:55:38;;;;;;;38.88;14.02;;;;;;;9.47;76.27;100916.88;10303041;28;20074;-70
2023/11/18 14:00:40;;;;;;;33.58;13.93;;;;;;;9.51;76.38;100901.31;10303894;28;20129;-70
2023/11/18 14:05:43;;;;;;;30.77;14.15;;;;;;;9.56;76.28;100900.81;10302760;28;20058;-70
2023/11/18 14:10:48;;;;;;;32.33;12.68;;;;;;;9.52;76.60;100903.84;10303144;28;20149;-71
2023/11/18 14:16:04;;;;;;;35.05;13.93;;;;;;;9.56;76.34;100901.69;10315251;28;20042;-69
2023/11/18 14:21:05;;;;;;;32.05;13.27;;;;;;;9.58;76.52;100875.53;10286935;28;20078;-70
2023/11/18 14:26:07;;;;;;;27.88;12.57;;;;;;;9.60;76.46;100845.88;10321323;28;20054;-71
2023/11/18 14:31:10;;;;;;;27.63;11.98;;;;;;;9.61;76.44;100840.31;10322223;28;20054;-69
2023/11/18 14:36:12;;;;;;;23.83;12.20;;;;;;;9.61;76.57;100874.38;10330918;28;20070;-68
2023/11/18 14:41:13;;;;;;;24.88;11.20;;;;;;;9.61;76.37;100859.09;10334415;28;20061;-72
2023/11/18 14:46:15;;;;;;;22.55;10.23;;;;;;;9.63;76.50;100861.63;10322390;28;20054;-72
2023/11/18 14:51:16;;;;;;;22.13;10.48;;;;;;;9.70;76.65;100855.47;10317176;28;20050;-69
2023/11/18 14:56:18;;;;;;;23.80;10.52;;;;;;;9.64;76.55;100842.69;10319781;28;20058;-69
2023/11/18 15:01:19;;;;;;;23.98;9.35;;;;;;;9.65;76.84;100838.16;10311390;28;20051;-68
2023/11/18 15:06:25;;;;;;;17.17;9.20;;;;;;;9.64;76.88;100836.50;10320759;28;20141;-71
2023/11/18 15:11:28;;;;;;;19.67;10.68;;;;;;;9.60;77.37;100825.22;10332404;28;20154;-69
2023/11/18 15:16:29;;;;;;;18.48;7.90;;;;;;;9.63;77.26;100832.09;10323638;28;20050;-67
2023/11/18 15:21:31;;;;;;;18.77;8.88;;;;;;;9.61;77.38;100810.78;10326050;28;20047;-69
2023/11/18 15:26:32;;;;;;;15.30;8.15;;;;;;;9.62;77.35;100798.22;10325077;28;20057;-70
2023/11/18 15:31:34;;;;;;;14.40;7.20;;;;;;;9.59;77.33;100787.81;10338815;28;20055;-71
2023/11/18 15:36:42;;;;;;;10.23;6.40;;;;;;;9.61;77.53;100792.00;10337555;28;20110;-70
2023/11/18 15:41:43;;;;;;;13.30;4.00;;;;;;;9.47;78.07;100773.81;10338649;28;20114;-68
2023/11/18 15:46:49;;;;;;;10.15;4.80;;;;;;;9.38;78.36;100770.25;10325894;28;20074;-70
2023/11/18 15:51:51;;;;;;;7.40;3.75;;;;;;;9.39;78.50;100760.34;10333861;28;20074;-68
2023/11/18 15:56:52;;;;;;;6.68;3.35;;;;;;;9.31;78.54;100751.22;10325042;28;20050;-70
2023/11/18 16:01:55;;;;;;;14.25;2.95;;;;;;;9.37;78.40;100743.56;10321137;28;20105;-71
2023/11/18 16:06:57;;;;;;;4.63;2.30;;;;;;;9.14;78.87;100722.63;10299740;28;20081;-71
2023/11/18 16:11:58;;;;;;;6.07;2.10;;;;;;;9.12;79.23;100711.19;10299219;28;20053;-70
2023/11/18 16:17:00;;;;;;;3.08;2.17;;;;;;;9.00;79.10;100715.16;10307183;28;20057;-70
2023/11/18 16:22:01;;;;;;;7.07;2.38;;;;;;;8.99;79.26;100718.84;10327727;28;20092;-70
2023/11/18 16:27:04;;;;;;;8.00;2.10;;;;;;;9.02;79.36;100702.44;10332082;28;20069;-69
2023/11/18 16:32:06;;;;;;;6.03;2.53;;;;;;;9.04;79.13;100698.59;10310507;28;20047;-71
2023/11/18 16:37:07;;;;;;;6.32;2.65;;;;;;;9.08;78.90;100688.38;10307785;28;20145;-70
2023/11/18 16:42:08;;;;;;;6.18;1.40;;;;;;;9.03;79.11;100678.16;10296109;28;20051;-71
2023/11/18 16:47:10;;;;;;;6.68;1.98;;;;;;;9.00;79.12;100654.31;10297201;28;20173;-68
2023/11/18 16:52:11;;;;;;;6.90;1.58;;;;;;;8.97;79.15;100625.16;10321737;28;20105;-70
2023/11/18 16:57:13;;;;;;;4.65;1.50;;;;;;;8.87;79.67;100616.38;10299677;28;20042;-68
2023/11/18 17:02:15;;;;;;;4.63;2.13;;;;;;;8.79;79.49;100613.63;10304143;28;20054;-72
2023/11/18 17:07:16;;;;;;;5.30;1.58;;;;;;;8.79;79.73;100602.91;10301294;28;20100;-70
2023/11/18 17:12:18;;;;;;;3.40;1.10;;;;;;;8.85;79.39;100597.78;10304151;28;20058;-70
2023/11/18 17:17:19;;;;;;;1.95;1.30;;;;;;;8.77;79.77;100607.59;10302406;28;20057;-70
2023/11/18 17:22:21;;;;;;;4.07;1.88;;;;;;;8.73;79.84;100601.72;10302249;28;20064;-63
2023/11/18 17:27:24;;;;;;;11.10;1.85;;;;;;;8.74;79.81;100588.16;10302570;28;20050;-65
2023/11/18 17:32:25;;;;;;;6.60;2.33;;;;;;;8.72;80.21;100573.22;10307664;28;20050;-64
2023/11/18 17:37:27;;;;;;;5.93;2.38;;;;;;;8.70;80.26;100570.69;10307545;28;20050;-65
2023/11/18 17:42:29;;;;;;;8.25;2.80;;;;;;;8.74;80.16;100550.63;10302726;28;20556;-65
2023/11/18 17:47:34;;;;;;;5.70;2.30;;;;;;;8.66;80.61;100560.47;10307254;28;20073;-63
2023/11/18 17:52:36;;;;;;;6.28;3.08;;;;;;;8.74;80.30;100564.03;10307259;28;20077;-61
2023/11/18 17:57:41;;;;;;;6.85;2.58;;;;;;;8.71;80.45;100542.09;10301530;28;20122;-63
2023/11/18 18:02:43;;;;;;;9.32;2.92;;;;;;;8.80;80.47;100529.56;10308208;28;20050;-64
2023/11/18 18:07:44;;;;;;;6.78;2.80;;;;;;;8.76;80.61;100523.66;10297051;28;20071;-63
2023/11/18 18:12:46;;;;;;;4.90;2.95;;;;;;;8.80;80.74;100540.28;10292991;28;20050;-62
2023/11/18 18:17:48;;;;;;;10.75;4.32;;;;;;;8.81;80.64;100524.03;10310950;28;20055;-63
2023/11/18 18:22:50;;;;;;;6.32;3.10;;;;;;;8.87;80.37;100507.31;10309736;28;20069;-64
2023/11/18 18:27:51;;;;;;;6.90;3.53;;;;;;;8.85;80.72;100509.31;10293533;28;20058;-63
2023/11/18 18:32:53;;;;;;;8.85;3.50;;;;;;;8.83;80.83;100510.47;10310999;28;20039;-64
2023/11/18 18:37:54;;;;;;;6.70;4.05;;;;;;;8.85;80.55;100509.31;10280668;28;20137;-63
2023/11/18 18:42:56;;;;;;;9.07;5.28;;;;;;;8.90;80.63;100517.69;10303626;28;20130;-63
2023/11/18 18:47:58;;;;;;;8.95;4.65;;;;;;;9.01;80.36;100518.44;10302398;28;20073;-64
2023/11/18 18:53:01;;;;;;;11.32;5.95;;;;;;;9.04;80.47;100510.03;10298486;28;20109;-64
2023/11/18 18:58:03;;;;;;;16.45;7.57;;;;;;;9.04;80.40;100494.78;10276527;28;20395;-64
2023/11/18 19:03:04;;;;;;;10.57;6.63;;;;;;;9.08;80.34;100477.41;10296605;28;20053;-65
2023/11/18 19:08:06;;;;;;;11.45;5.72;;;;;;;9.00;80.48;100489.94;10282996;28;20133;-64
2023/11/18 19:13:08;;;;;;;16.13;6.82;;;;;;;8.92;80.69;100459.41;10283776;28;20137;-65
2023/11/18 19:18:09;;;;;;;18.73;7.22;;;;;;;8.97;80.79;100448.19;10297029;28;20054;-65
2023/11/18 19:23:10;;;;;;;10.93;6.32;;;;;;;8.97;80.95;100458.09;10303089;28;20129;-64
2023/11/18 19:28:12;;;;;;;13.60;6.65;;;;;;;8.94;81.03;100440.47;10300750;28;20506;-65
2023/11/18 19:33:14;;;;;;;15.07;6.25;;;;;;;8.96;80.96;100432.28;10299449;28;20084;-65
2023/11/18 19:38:17;;;;;;;12.10;5.80;;;;;;;8.93;81.22;100425.41;10291215;28;20490;-65
2023/11/18 19:43:18;;;;;;;16.35;7.32;;;;;;;8.92;81.45;100413.00;10293235;28;20051;-66
2023/11/18 19:48:20;;;;;;;12.65;7.20;;;;;;;9.02;81.10;100396.75;10296744;28;20046;-65
2023/11/18 19:53:22;;;;;;;16.15;7.53;;;;;;;8.97;81.24;100385.72;10301989;28;20054;-64
2023/11/18 19:58:23;;;;;;;12.40;5.68;;;;;;;8.83;81.51;100381.81;10297789;28;20055;-64
2023/11/18 20:03:25;;;;;;;10.38;6.00;;;;;;;8.92;81.34;100370.94;10301905;28;20531;-69
2023/11/18 20:08:27;;;;;;;8.13;3.80;;;;;;;8.87;81.55;100370.59;10300311;28;20536;-66
2023/11/18 20:13:28;;;;;;;9.00;3.85;;;;;;;8.89;81.49;100367.75;10305155;28;20077;-69
2023/11/18 20:18:29;;;;;;;9.30;3.42;;;;;;;8.81;81.90;100379.31;10296117;28;20758;-69
2023/11/18 20:23:31;;;;;;;4.65;2.63;;;;;;;8.76;82.10;100386.16;10309218;28;20078;-69
2023/11/18 20:28:35;;;;;;;6.32;3.22;;;;;;;8.71;82.17;100383.97;10293481;28;20658;-69
2023/11/18 20:33:36;;;;;;;8.02;3.28;;;;;;;8.76;82.25;100375.44;10308655;28;20041;-68
2023/11/18 20:38:43;;;;;;;9.50;3.50;;;;;;;8.73;82.46;100355.16;10309457;28;20039;-69
2023/11/18 20:43:44;;;;;;;6.97;2.97;;;;;;;8.71;82.36;100338.41;10309760;28;20058;-69
2023/11/18 20:48:46;;;;;;;10.32;3.90;;;;;;;8.76;82.62;100354.00;10304056;28;20050;-69
2023/11/18 20:53:47;;;;;;;10.80;3.63;;;;;;;8.76;82.62;100344.09;10307423;28;20046;-67
2023/11/18 20:58:50;;;;;;;6.82;3.47;;;;;;;8.76;82.50;100328.03;10286118;28;20105;-66
2023/11/18 21:03:51;;;;;;;7.03;3.85;;;;;;;8.76;82.74;100321.81;10304923;28;20131;-68
2023/11/18 21:08:54;;;;;;;11.70;5.13;;;;;;;8.80;82.56;100315.13;10292980;28;20495;-66
2023/11/18 21:13:56;;;;;;;10.70;5.07;;;;;;;8.83;82.48;100302.25;10299347;28;20048;-66
2023/11/18 21:19:00;;;;;;;11.20;5.00;;;;;;;8.87;82.31;100292.88;10301444;28;20054;-66
2023/11/18 21:24:03;;;;;;;9.57;5.65;;;;;;;8.86;82.63;100287.66;10301270;28;20054;-66
2023/11/18 21:29:04;;;;;;;8.52;5.13;;;;;;;8.90;82.55;100270.25;10283068;28;20160;-65
2023/11/18 21:34:06;;;;;;;10.95;5.88;;;;;;;8.85;82.69;100267.25;10297610;28;20047;-66
2023/11/18 21:39:13;;;;;;;14.98;6.95;;;;;;;8.92;82.61;100262.88;10303409;28;20062;-66
2023/11/18 21:44:14;;;;;;;10.95;6.10;;;;;;;8.83;83.05;100258.53;10302509;28;20505;-66
2023/11/18 21:49:16;;;;;;;12.13;5.30;;;;;;;8.86;83.07;100253.66;10307458;28;20149;-66
2023/11/18 21:54:17;;;;;;;14.40;6.13;;;;;;;8.91;82.94;100239.75;10307337;28;20062;-65
2023/11/18 21:59:18;;;;;;;13.18;5.75;;;;;;;8.94;82.92;100223.31;10301505;28;20521;-66
2023/11/18 22:04:20;;;;;;;12.50;6.63;;;;;;;8.96;82.90;100224.00;10297845;28;20612;-67
2023/11/18 22:09:25;;;;;;;9.80;5.88;;;;;;;8.99;82.92;100237.06;10303484;28;20492;-67
2023/11/18 22:14:26;;;;;;;14.32;6.60;;;;;;;9.02;82.94;100226.00;10300143;28;20047;-66
2023/11/18 22:19:28;;;;;;;14.75;7.35;;;;;;;9.09;82.79;100210.91;10297616;28;20057;-66
2023/11/18 22:24:29;;;;;;;17.63;7.38;;;;;;;9.12;82.59;100199.88;10297621;28;20050;-67
2023/11/18 22:29:31;;;;;;;14.10;6.00;;;;;;;9.13;82.60;100173.88;10301087;28;20052;-67
2023/11/18 22:34:35;;;;;;;13.88;6.50;;;;;;;9.15;82.83;100165.66;10303995;28;20422;-66
2023/11/18 22:39:36;;;;;;;16.55;7.35;;;;;;;9.25;82.45;100164.44;10299418;28;20051;-67
2023/11/18 22:44:38;;;;;;;12.77;5.88;;;;;;;9.22;82.65;100210.41;10299895;28;20067;-66
2023/11/18 22:49:40;;;;;;;12.50;6.65;;;;;;;9.24;82.41;100200.34;10301682;28;20122;-67
2023/11/18 22:54:44;;;;;;;17.55;6.63;;;;;;;9.29;82.61;100175.69;10298330;28;20140;-67
2023/11/18 22:59:46;;;;;;;12.70;6.53;;;;;;;9.38;82.42;100145.16;10272849;28;20117;-67
2023/11/18 23:04:48;;;;;;;14.68;6.82;;;;;;;9.37;82.54;100143.47;10296159;28;20490;-66
2023/11/18 23:09:49;;;;;;;16.08;6.78;;;;;;;9.40;82.58;100161.03;10300988;28;20046;-67
2023/11/18 23:14:52;;;;;;;22.42;7.53;;;;;;;9.49;82.26;100154.66;10293974;28;20053;-66